Time;durP1;ratioP1;P1;durP2;ratioP2;P2;SDS_P1;SDS_P2;PMS_P1;PMS_P2;Temp;Humidity;BMP_temperature;BMP_pressure;BME280_temperature;BME280_humidity;BME280_pressure;Samples;Min_cycle;Max_cycle;Signal;HPM_P1;HPM_P2
2023/06/04 00:02:17;;;;;;;;;6.25;6.25;;;;;22.20;30.21;101161.03;4963776;28;45255;-60
2023/06/04 00:04:42;;;;;;;;;9.25;7.00;;;;;22.16;30.61;101161.28;4982709;28;45278;-59
2023/06/04 00:07:07;;;;;;;;;7.50;6.25;;;;;22.14;30.76;101155.16;4967273;28;45369;-59
2023/06/04 00:09:33;;;;;;;;;8.00;5.50;;;;;22.11;30.51;101161.53;4963886;28;46613;-59
2023/06/04 00:11:58;;;;;;;;;7.00;7.00;;;;;22.06;30.83;101148.44;4963314;28;45399;-58
2023/06/04 00:14:23;;;;;;;;;8.00;8.00;;;;;22.05;30.71;101159.22;4962563;28;45291;-59
2023/06/04 00:16:49;;;;;;;;;6.75;5.25;;;;;22.00;30.63;101154.13;4988675;28;45304;-59
2023/06/04 00:19:14;;;;;;;;;6.25;5.25;;;;;21.97;31.16;101148.06;4978677;28;47257;-59
2023/06/04 00:21:39;;;;;;;;;6.50;6.50;;;;;21.94;30.57;101145.56;4962377;28;45340;-59
2023/06/04 00:24:05;;;;;;;;;7.00;7.00;;;;;21.88;30.93;101144.09;4963796;28;45688;-59
2023/06/04 00:26:30;;;;;;;;;8.75;6.50;;;;;21.86;31.16;101148.66;4978107;28;45397;-59
2023/06/04 00:28:56;;;;;;;;;7.50;6.00;;;;;21.83;30.57;101156.88;4963524;28;46151;-59
2023/06/04 00:31:21;;;;;;;;;7.75;5.50;;;;;21.72;30.95;101139.59;4963321;28;47981;-59
2023/06/04 00:33:47;;;;;;;;;7.50;6.00;;;;;21.74;31.04;101152.88;4963468;28;45619;-60
2023/06/04 00:36:13;;;;;;;;;4.75;4.75;;;;;21.73;30.91;101148.47;4978464;28;45331;-59
2023/06/04 00:38:38;;;;;;;;;5.50;5.50;;;;;21.64;30.86;101141.81;4963253;28;46210;-59
2023/06/04 00:41:03;;;;;;;;;6.25;5.50;;;;;21.66;30.99;101156.00;4962633;28;45409;-60
2023/06/04 00:43:31;;;;;;;;;7.00;5.00;;;;;21.65;31.37;101158.75;4963118;28;45225;-60
2023/06/04 00:45:57;;;;;;;;;6.50;5.50;;;;;21.59;31.27;101150.09;4963204;28;45244;-60
2023/06/04 00:48:23;;;;;;;;;6.25;6.25;;;;;21.57;31.04;101152.00;4963052;28;46106;-60
2023/06/04 00:50:49;;;;;;;;;6.00;6.00;;;;;21.55;31.38;101148.53;4963212;28;45354;-59
2023/06/04 00:53:14;;;;;;;;;6.00;6.00;;;;;21.52;30.96;101146.00;4963375;28;45251;-60
2023/06/04 00:55:40;;;;;;;;;6.00;6.00;;;;;21.50;31.50;101150.56;4962905;28;45323;-60
2023/06/04 00:58:05;;;;;;;;;4.25;4.25;;;;;21.45;31.33;101147.28;4962553;28;46538;-57
2023/06/04 01:00:32;;;;;;;;;8.00;6.00;;;;;21.42;31.29;101153.66;4961601;28;45326;-58
2023/06/04 01:03:02;;;;;;;;;4.00;3.75;;;;;21.41;31.24;101153.75;4967967;28;45301;-58
2023/06/04 01:05:43;;;;;;;;;5.75;5.75;;;;;21.31;31.41;101137.31;4979762;28;45231;-58
2023/06/04 01:08:08;;;;;;;;;5.75;5.75;;;;;21.35;31.08;101151.41;4962985;28;45399;-58
2023/06/04 01:10:35;;;;;;;;;5.00;4.00;;;;;21.31;31.31;101149.81;4961433;28;45748;-58
2023/06/04 01:13:00;;;;;;;;;6.00;5.00;;;;;21.27;31.63;101143.78;4962763;28;45247;-59
2023/06/04 01:15:25;;;;;;;;;5.00;5.00;;;;;21.23;31.67;101153.78;4962983;28;45168;-58
2023/06/04 01:17:57;;;;;;;;;6.75;6.00;;;;;21.21;31.08;101155.66;4962759;28;46314;-58
2023/06/04 01:20:31;;;;;;;;;7.00;5.75;;;;;21.15;31.61;101147.94;4962649;28;45457;-58
2023/06/04 01:23:16;;;;;;;;;6.00;5.25;;;;;21.15;31.62;101153.28;4962893;28;45390;-58
2023/06/04 01:25:43;;;;;;;;;5.25;5.00;;;;;21.11;31.27;101159.75;4962551;28;45303;-59
2023/06/04 01:28:11;;;;;;;;;6.00;6.00;;;;;21.07;31.78;101156.38;4962082;28;45359;-58
2023/06/04 01:30:45;;;;;;;;;9.25;7.00;;;;;21.05;31.80;101158.25;4962708;28;45202;-58
2023/06/04 01:33:16;;;;;;;;;5.25;4.75;;;;;21.03;31.96;101153.94;4962397;28;45234;-58
2023/06/04 01:35:41;;;;;;;;;8.25;6.25;;;;;20.99;31.46;101149.69;4962514;28;45260;-59
2023/06/04 01:38:07;;;;;;;;;5.25;5.25;;;;;20.97;31.75;101156.91;4962187;28;45342;-58
2023/06/04 01:40:33;;;;;;;;;7.25;5.25;;;;;20.94;31.83;101155.25;4962494;28;45330;-58
2023/06/04 01:42:59;;;;;;;;;6.00;5.75;;;;;20.92;31.47;101154.50;4962059;28;45248;-58
2023/06/04 01:45:26;;;;;;;;;4.50;4.50;;;;;20.91;31.43;101158.97;4962309;28;45267;-58
2023/06/04 01:47:52;;;;;;;;;7.00;7.00;;;;;20.87;31.79;101161.88;4962033;28;46165;-58
2023/06/04 01:50:18;;;;;;;;;6.50;6.00;;;;;20.84;32.00;101162.91;4962505;28;45221;-58
2023/06/04 01:52:43;;;;;;;;;6.25;6.00;;;;;20.81;32.08;101168.38;4959767;28;45444;-58
2023/06/04 01:55:16;;;;;;;;;5.00;5.00;;;;;20.78;32.16;101157.88;4962022;28;45511;-58
2023/06/04 01:57:43;;;;;;;;;3.00;2.25;;;;;20.74;31.65;101162.50;4960538;28;47134;-58
2023/06/04 02:00:10;;;;;;;;;5.25;5.25;;;;;20.72;31.80;101163.53;4962077;28;45333;-58
2023/06/04 02:02:41;;;;;;;;;6.75;5.50;;;;;20.70;32.21;101168.88;4964026;28;45282;-58
2023/06/04 02:05:07;;;;;;;;;4.25;4.25;;;;;20.68;32.08;101167.22;4981496;28;45396;-58
2023/06/04 02:07:38;;;;;;;;;6.00;6.00;;;;;20.66;32.15;101169.13;4960883;28;45496;-58
2023/06/04 02:10:08;;;;;;;;;7.50;5.25;;;;;20.61;31.77;101162.19;4961754;28;45390;-58
2023/06/04 02:12:36;;;;;;;;;6.00;6.00;;;;;20.60;32.27;101164.94;4976859;28;45416;-58
2023/06/04 02:15:02;;;;;;;;;7.75;6.25;;;;;20.55;32.30;101173.19;4963616;28;45389;-58
2023/06/04 02:17:27;;;;;;;;;5.75;5.75;;;;;20.54;31.87;101173.25;4985530;28;45480;-59
2023/06/04 02:19:54;;;;;;;;;7.75;6.75;;;;;20.52;32.06;101177.81;4961661;28;45293;-59
2023/06/04 02:22:20;;;;;;;;;8.00;5.75;;;;;20.46;32.32;101170.97;4962142;28;45441;-59
2023/06/04 02:24:47;;;;;;;;;6.00;6.00;;;;;20.48;31.92;101176.22;4961366;28;45491;-59
2023/06/04 02:27:14;;;;;;;;;5.75;5.00;;;;;20.45;32.38;101180.78;4961679;28;46107;-58
2023/06/04 02:29:40;;;;;;;;;5.25;4.50;;;;;20.43;32.11;101180.00;4961476;28;45262;-59
2023/06/04 02:32:06;;;;;;;;;6.25;5.75;;;;;20.41;31.97;101181.84;4961855;28;45387;-59
2023/06/04 02:34:33;;;;;;;;;6.00;4.00;;;;;20.39;32.07;101182.88;4961413;28;45380;-59
2023/06/04 02:36:59;;;;;;;;;6.50;5.25;;;;;20.35;32.17;101179.50;4961518;28;45294;-59
2023/06/04 02:39:24;;;;;;;;;4.25;4.25;;;;;20.33;32.36;101176.03;4961584;28;45179;-58
2023/06/04 02:41:50;;;;;;;;;3.25;3.25;;;;;20.32;32.40;101176.97;4961347;28;45394;-59
2023/06/04 02:44:15;;;;;;;;;5.25;5.25;;;;;20.29;32.48;101180.66;4976183;28;52569;-59
2023/06/04 02:46:40;;;;;;;;;6.00;6.00;;;;;20.27;32.50;101187.88;4961445;28;45300;-59
2023/06/04 02:49:06;;;;;;;;;5.00;5.00;;;;;20.26;32.63;101182.59;4976406;28;45330;-58
2023/06/04 02:51:32;;;;;;;;;4.50;4.50;;;;;20.24;32.29;101180.03;4961735;28;45338;-59
2023/06/04 02:53:58;;;;;;;;;3.25;3.00;;;;;20.23;32.34;101183.63;4961264;28;45292;-59
2023/06/04 02:56:23;;;;;;;;;5.25;5.25;;;;;20.21;32.25;101179.28;4960829;28;46373;-59
2023/06/04 02:58:53;;;;;;;;;4.25;4.25;;;;;20.19;32.47;101183.84;4961142;28;45346;-59
2023/06/04 03:01:23;;;;;;;;;3.50;3.50;;;;;20.16;32.69;101184.00;4975914;28;45288;-58
2023/06/04 03:03:48;;;;;;;;;5.75;4.75;;;;;20.11;32.66;101176.19;4971377;28;45244;-58
2023/06/04 03:06:16;;;;;;;;;4.00;4.00;;;;;20.10;32.43;101180.69;4971594;28;46364;-59
2023/06/04 03:08:42;;;;;;;;;4.75;4.75;;;;;20.07;32.79;101179.94;4961148;28;45280;-58
2023/06/04 03:11:07;;;;;;;;;7.75;5.25;;;;;20.06;32.40;101184.44;4961144;28;45319;-58
2023/06/04 03:13:33;;;;;;;;;5.00;4.00;;;;;20.02;32.94;101179.31;4960866;28;45433;-58
2023/06/04 03:16:01;;;;;;;;;4.50;4.50;;;;;20.01;32.45;101182.91;4961293;28;45329;-58
2023/06/04 03:18:27;;;;;;;;;3.75;3.75;;;;;19.96;32.40;101181.34;4961035;28;45410;-58
2023/06/04 03:20:53;;;;;;;;;6.00;6.00;;;;;19.96;33.02;101181.34;4961265;28;45270;-58
2023/06/04 03:23:19;;;;;;;;;5.50;4.50;;;;;19.93;32.50;101176.13;4959509;28;46051;-59
2023/06/04 03:25:44;;;;;;;;;7.00;5.50;;;;;19.93;32.90;101175.28;4960906;28;45529;-58
2023/06/04 03:28:10;;;;;;;;;3.75;3.75;;;;;19.89;32.92;101171.03;4960595;28;45309;-59
2023/06/04 03:30:35;;;;;;;;;4.25;3.00;;;;;19.87;32.68;101167.56;4960050;28;45339;-58
2023/06/04 03:33:00;;;;;;;;;6.00;5.00;;;;;19.85;32.95;101169.41;4959416;28;45336;-58
2023/06/04 03:35:26;;;;;;;;;5.75;4.75;;;;;19.81;32.84;101168.69;4960838;28;46479;-58
2023/06/04 03:37:51;;;;;;;;;6.25;4.00;;;;;19.80;32.76;101175.81;4959500;28;45311;-59
2023/06/04 03:40:16;;;;;;;;;6.00;4.00;;;;;19.79;32.70;101181.22;4960981;28;45283;-58
2023/06/04 03:42:42;;;;;;;;;7.50;4.00;;;;;19.76;33.05;101181.34;4960423;28;45523;-59
2023/06/04 03:45:08;;;;;;;;;6.00;4.25;;;;;19.73;32.91;101174.34;4960921;28;45413;-59
2023/06/04 03:47:33;;;;;;;;;4.25;4.25;;;;;19.73;33.14;101178.81;4960588;28;45315;-60
2023/06/04 03:49:58;;;;;;;;;3.50;3.25;;;;;19.70;32.85;101179.84;4960855;28;45259;-60
2023/06/04 03:52:24;;;;;;;;;7.00;6.00;;;;;19.64;33.05;101183.63;4960447;28;45246;-59
2023/06/04 03:54:49;;;;;;;;;4.00;4.00;;;;;19.67;32.93;101187.09;4959167;28;46217;-59
2023/06/04 03:57:14;;;;;;;;;4.00;4.00;;;;;19.63;32.64;101186.38;4960340;28;45353;-59
2023/06/04 03:59:40;;;;;;;;;7.00;5.50;;;;;19.61;32.74;101191.78;4960820;28;45836;-59
2023/06/04 04:02:05;;;;;;;;;5.00;4.75;;;;;19.61;33.13;101196.25;4960479;28;45449;-59
2023/06/04 04:04:32;;;;;;;;;3.75;3.75;;;;;19.59;33.04;101190.13;4977726;28;45315;-59
2023/06/04 04:06:59;;;;;;;;;5.00;5.00;;;;;19.54;32.78;101189.47;4964938;28;45212;-59
2023/06/04 04:09:24;;;;;;;;;5.75;5.00;;;;;19.54;32.90;101198.31;4960756;28;45339;-59
2023/06/04 04:11:50;;;;;;;;;6.25;4.50;;;;;19.53;32.92;101198.38;4959803;28;45528;-59
2023/06/04 04:14:15;;;;;;;;;4.50;4.00;;;;;19.50;33.09;101199.38;4960334;28;45289;-59
2023/06/04 04:16:40;;;;;;;;;6.50;4.00;;;;;19.46;32.73;101195.13;4988618;28;53973;-59
2023/06/04 04:19:07;;;;;;;;;5.00;5.00;;;;;19.45;33.38;101206.72;4963866;28;45672;-59
2023/06/04 04:21:36;;;;;;;;;4.50;4.50;;;;;19.43;33.29;101205.91;4963686;28;45312;-59
2023/06/04 04:24:02;;;;;;;;;7.50;5.75;;;;;19.41;33.45;101199.81;4978513;28;46859;-59
2023/06/04 04:26:28;;;;;;;;;5.00;4.00;;;;;19.37;33.26;101199.06;4962007;28;45180;-59
2023/06/04 04:28:57;;;;;;;;;4.25;4.00;;;;;19.37;33.15;101196.41;4963724;28;45212;-59
2023/06/04 04:31:26;;;;;;;;;3.75;3.75;;;;;19.38;33.21;101202.59;4978461;28;45461;-59
2023/06/04 04:33:52;;;;;;;;;4.25;4.25;;;;;19.35;33.51;101206.25;4963402;28;46209;-59
2023/06/04 04:36:18;;;;;;;;;8.00;5.75;;;;;19.33;33.35;101202.78;4978291;28;45258;-59
2023/06/04 04:38:44;;;;;;;;;5.00;5.00;;;;;19.33;33.46;101208.09;4963902;28;45281;-59
2023/06/04 04:41:11;;;;;;;;;5.75;4.50;;;;;19.31;33.34;101207.34;4962967;28;45373;-59
2023/06/04 04:43:39;;;;;;;;;4.00;4.00;;;;;19.29;33.28;101209.19;4963169;28;45314;-60
2023/06/04 04:46:05;;;;;;;;;5.00;5.00;;;;;19.28;33.19;101210.09;4978144;28;45191;-59
2023/06/04 04:48:30;;;;;;;;;6.50;5.00;;;;;19.26;33.42;101207.53;4963470;28;45233;-59
2023/06/04 04:50:56;;;;;;;;;3.75;3.75;;;;;19.26;33.46;101214.66;4978105;28;45458;-59
2023/06/04 04:53:21;;;;;;;;;5.00;5.00;;;;;19.23;33.48;101213.00;4963163;28;46006;-60
2023/06/04 04:55:47;;;;;;;;;5.25;5.25;;;;;19.23;33.04;101218.31;4962998;28;45323;-60
2023/06/04 04:58:13;;;;;;;;;5.00;3.50;;;;;19.21;33.32;101214.00;4963081;28;45424;-59
2023/06/04 05:00:38;;;;;;;;;4.00;4.00;;;;;19.21;33.34;101219.31;4963253;28;45479;-60
2023/06/04 05:03:04;;;;;;;;;5.25;5.00;;;;;19.20;33.41;101223.75;4968553;28;45570;-60
2023/06/04 05:05:29;;;;;;;;;5.25;4.00;;;;;19.18;33.29;101225.63;4980204;28;45327;-60
2023/06/04 05:07:54;;;;;;;;;5.00;5.00;;;;;19.16;33.32;101223.03;4982685;28;45619;-60
2023/06/04 05:10:20;;;;;;;;;4.25;4.25;;;;;19.16;33.49;101227.50;4981100;28;45440;-60
2023/06/04 05:12:53;;;;;;;;;5.50;3.00;;;;;19.14;33.91;101226.69;4982113;28;46170;-60
2023/06/04 05:15:19;;;;;;;;;4.00;4.00;;;;;19.14;33.74;101230.25;4985447;28;45456;-60
2023/06/04 05:17:46;;;;;;;;;3.00;2.75;;;;;19.14;33.27;101222.25;4980228;28;45351;-60
2023/06/04 05:20:15;;;;;;;;;4.00;4.00;;;;;19.12;33.99;101224.09;4962585;28;45461;-60
2023/06/04 05:22:43;;;;;;;;;5.00;4.50;;;;;19.12;33.75;101228.56;4962830;28;47047;-60
2023/06/04 05:25:09;;;;;;;;;6.25;4.25;;;;;19.11;33.55;101227.69;4962332;28;45217;-60
2023/06/04 05:27:35;;;;;;;;;6.00;5.00;;;;;19.11;33.71;101233.00;4962456;28;45266;-60
2023/06/04 05:30:02;;;;;;;;;4.00;4.00;;;;;19.11;33.60;101234.81;4962398;28;45331;-60
2023/06/04 05:32:28;;;;;;;;;10.25;7.00;;;;;19.10;33.73;101236.59;4962669;28;45290;-60
2023/06/04 05:34:56;;;;;;;;;12.25;12.25;;;;;19.11;33.50;101234.81;4962119;28;45477;-60
2023/06/04 05:37:23;;;;;;;;;5.25;4.00;;;;;19.07;34.01;101234.09;4962642;28;45288;-60
2023/06/04 05:39:49;;;;;;;;;6.50;4.25;;;;;19.10;34.23;101241.06;4962163;28;45439;-60
2023/06/04 05:42:15;;;;;;;;;4.00;4.00;;;;;19.08;33.65;101243.81;4962195;28;45323;-60
2023/06/04 05:44:40;;;;;;;;;4.50;3.00;;;;;19.10;33.70;101243.75;4962126;28;45342;-60
2023/06/04 05:47:06;;;;;;;;;4.75;4.75;;;;;19.10;33.89;101244.59;4962562;28;45769;-60
2023/06/04 05:49:32;;;;;;;;;6.75;6.00;;;;;19.08;33.94;101248.25;4960546;28;45517;-60
2023/06/04 05:51:57;;;;;;;;;4.00;4.00;;;;;19.10;33.94;101255.25;4962314;28;46376;-60
2023/06/04 05:54:23;;;;;;;;;7.00;4.50;;;;;19.10;33.61;101260.56;4961577;28;56477;-60
2023/06/04 05:56:48;;;;;;;;;5.75;4.75;;;;;19.11;33.77;101262.31;4962190;28;45287;-60
2023/06/04 05:59:14;;;;;;;;;6.75;5.00;;;;;19.12;33.66;101264.06;4962156;28;45313;-60
2023/06/04 06:01:40;;;;;;;;;4.50;3.25;;;;;19.12;33.73;101258.72;4962093;28;46202;-60
2023/06/04 06:04:05;;;;;;;;;6.75;5.25;;;;;19.11;33.83;101262.31;4975791;28;45203;-60
2023/06/04 06:06:30;;;;;;;;;5.00;4.00;;;;;19.11;34.08;101258.78;4970666;28;45405;-60
2023/06/04 06:08:56;;;;;;;;;3.75;3.75;;;;;19.13;33.84;101264.91;4961997;28;45222;-60
2023/06/04 06:11:21;;;;;;;;;19.00;17.25;;;;;19.14;33.89;101266.66;4961699;28;45472;-60
2023/06/04 06:13:47;;;;;;;;;6.00;6.00;;;;;19.16;33.73;101275.44;4961628;28;45242;-60
2023/06/04 06:16:12;;;;;;;;;3.00;3.00;;;;;19.16;34.00;101278.97;4981635;28;45226;-60
2023/06/04 06:18:37;;;;;;;;;2.50;2.50;;;;;19.18;33.78;101278.91;4966027;28;47967;-60
2023/06/04 06:21:03;;;;;;;;;6.00;4.75;;;;;19.19;33.78;101277.97;4961834;28;46028;-60
2023/06/04 06:23:28;;;;;;;;;3.25;3.00;;;;;19.21;34.10;101272.59;4961784;28;45349;-60
2023/06/04 06:25:53;;;;;;;;;3.75;3.75;;;;;19.22;33.62;101275.19;4961539;28;45240;-60
2023/06/04 06:28:19;;;;;;;;;4.75;4.75;;;;;19.24;33.82;101269.78;4961714;28;45330;-60
2023/06/04 06:30:44;;;;;;;;;5.00;4.00;;;;;19.23;34.09;101268.06;4960769;28;46178;-60
2023/06/04 06:33:10;;;;;;;;;4.75;4.50;;;;;19.26;34.05;101268.78;4961698;28;45411;-60
2023/06/04 06:35:36;;;;;;;;;3.00;3.00;;;;;19.17;34.12;101263.88;4961932;28;45464;-60
2023/06/04 06:38:01;;;;;;;;;4.75;3.00;;;;;19.24;33.92;101269.78;4960920;28;45369;-60
2023/06/04 06:40:26;;;;;;;;;5.00;3.50;;;;;19.34;33.92;101276.47;4960271;28;45501;-60
2023/06/04 06:42:52;;;;;;;;;4.75;4.75;;;;;19.35;33.92;101278.19;4961287;28;45334;-60
2023/06/04 06:45:20;;;;;;;;;2.00;2.00;;;;;19.37;34.07;101283.44;4960557;28;45476;-60
2023/06/04 06:47:45;;;;;;;;;6.00;4.25;;;;;19.36;33.80;101279.94;4976283;28;45456;-60
2023/06/04 06:50:11;;;;;;;;;5.50;4.50;;;;;19.38;33.96;101278.06;4961283;28;46175;-60
2023/06/04 06:52:37;;;;;;;;;5.00;5.00;;;;;19.42;33.83;101281.47;4976232;28;45233;-60
2023/06/04 06:55:04;;;;;;;;;5.75;4.25;;;;;19.43;34.09;101289.41;4961351;28;45408;-60
2023/06/04 06:57:29;;;;;;;;;5.00;4.00;;;;;19.43;34.23;101283.19;4960932;28;45443;-60
2023/06/04 06:59:55;;;;;;;;;5.00;5.00;;;;;19.48;34.14;101286.53;4961177;28;45411;-60
2023/06/04 07:02:20;;;;;;;;;3.50;3.50;;;;;19.48;34.22;101284.75;4961165;28;45344;-60
2023/06/04 07:04:46;;;;;;;;;4.25;3.00;;;;;19.49;34.04;101278.47;4970988;28;45397;-60
2023/06/04 07:07:11;;;;;;;;;3.50;3.00;;;;;19.55;34.19;101281.81;4964164;28;45401;-60
2023/06/04 07:09:36;;;;;;;;;5.25;4.00;;;;;19.59;34.17;101283.41;4959829;28;46070;-60
2023/06/04 07:12:01;;;;;;;;;6.00;5.00;;;;;19.61;33.83;101282.41;4960472;28;48399;-60
2023/06/04 07:14:27;;;;;;;;;3.75;3.75;;;;;19.64;34.04;101284.06;4961538;28;45313;-60
2023/06/04 07:16:52;;;;;;;;;4.75;4.75;;;;;19.67;34.07;101285.72;4986116;28;46443;-60
2023/06/04 07:19:17;;;;;;;;;7.75;4.25;;;;;19.68;33.70;101276.81;4960953;28;46349;-60
2023/06/04 07:21:43;;;;;;;;;7.00;5.00;;;;;19.73;34.15;101286.31;4960619;28;57227;-60
2023/06/04 07:24:08;;;;;;;;;4.50;4.50;;;;;19.77;34.03;101281.72;4961264;28;45397;-60
2023/06/04 07:26:33;;;;;;;;;4.00;3.00;;;;;19.80;34.18;101287.78;4960670;28;45612;-60
2023/06/04 07:28:59;;;;;;;;;6.50;4.00;;;;;19.84;34.18;101283.22;4960980;28;46055;-60
2023/06/04 07:31:24;;;;;;;;;2.25;2.25;;;;;19.89;34.39;101285.69;4961019;28;45233;-60
2023/06/04 07:33:49;;;;;;;;;4.25;3.75;;;;;19.92;34.29;101285.53;4960983;28;45207;-60
2023/06/04 07:36:16;;;;;;;;;6.00;5.00;;;;;19.93;34.57;101279.28;4960833;28;45235;-60
2023/06/04 07:38:41;;;;;;;;;2.25;2.00;;;;;19.97;33.93;101278.19;4959652;28;46112;-60
2023/06/04 07:41:07;;;;;;;;;3.25;3.00;;;;;20.03;33.99;101285.94;4960496;28;45172;-59
2023/06/04 07:43:35;;;;;;;;;3.00;3.00;;;;;20.04;34.35;101278.81;4961001;28;45328;-60
2023/06/04 07:46:04;;;;;;;;;4.75;4.50;;;;;20.12;33.89;101284.66;4960732;28;45440;-58
2023/06/04 07:48:32;;;;;;;;;3.25;3.25;;;;;20.16;34.35;101282.69;4960770;28;45300;-60
2023/06/04 07:50:58;;;;;;;;;5.75;5.75;;;;;20.14;33.95;101269.44;4962978;28;45397;-60
2023/06/04 07:53:24;;;;;;;;;5.75;4.75;;;;;20.23;34.51;101279.69;4964196;28;45279;-60
2023/06/04 07:55:50;;;;;;;;;3.50;3.50;;;;;20.28;34.15;101279.47;4963578;28;45414;-60
2023/06/04 07:58:15;;;;;;;;;4.75;3.75;;;;;20.33;33.82;101273.94;4963949;28;46219;-60
2023/06/04 08:00:41;;;;;;;;;4.25;4.25;;;;;20.37;34.37;101278.19;4978804;28;45339;-60
2023/06/04 08:03:06;;;;;;;;;4.50;4.50;;;;;20.42;34.50;101270.81;4970163;28;45341;-60
2023/06/04 08:05:31;;;;;;;;;4.00;4.00;;;;;20.46;34.02;101275.94;4980165;28;45313;-58
2023/06/04 08:07:57;;;;;;;;;5.25;4.00;;;;;20.50;34.52;101265.09;4963823;28;45408;-60
2023/06/04 08:10:22;;;;;;;;;6.00;6.00;;;;;20.56;34.58;101272.84;4963640;28;45339;-60
2023/06/04 08:12:47;;;;;;;;;3.00;3.00;;;;;20.60;34.47;101275.28;4963701;28;45380;-60
2023/06/04 08:15:13;;;;;;;;;14.00;10.50;;;;;20.64;34.12;101265.34;4968381;28;45477;-60
2023/06/04 08:17:38;;;;;;;;;2.50;2.00;;;;;20.70;34.68;101278.34;4984332;28;46167;-60
2023/06/04 08:20:06;;;;;;;;;7.75;4.25;;;;;20.72;34.15;101273.84;4962581;28;45321;-60
2023/06/04 08:22:32;;;;;;;;;4.00;3.25;;;;;20.80;34.72;101265.47;4963993;28;45164;-60
2023/06/04 08:24:57;;;;;;;;;4.75;4.75;;;;;20.85;33.83;101259.91;4963349;28;45246;-60
2023/06/04 08:27:23;;;;;;;;;5.00;5.00;;;;;20.91;34.25;101267.63;4962007;28;48160;-59
2023/06/04 08:29:48;;;;;;;;;5.00;3.50;;;;;20.98;34.55;101271.72;4963511;28;45235;-59
2023/06/04 08:32:13;;;;;;;;;6.75;5.50;;;;;21.02;34.65;101273.28;4963617;28;45227;-59
2023/06/04 08:34:39;;;;;;;;;5.00;4.00;;;;;21.08;34.65;101267.66;4978483;28;45647;-59
2023/06/04 08:37:05;;;;;;;;;4.75;4.75;;;;;21.14;34.17;101266.47;4962951;28;45527;-59
2023/06/04 08:39:31;;;;;;;;;3.00;3.00;;;;;21.21;34.23;101267.03;4963326;28;45331;-59
2023/06/04 08:42:01;;;;;;;;;4.00;4.00;;;;;21.27;34.21;101264.06;4963337;28;45330;-59
2023/06/04 08:44:27;;;;;;;;;5.00;5.00;;;;;21.33;34.15;101263.72;4978378;28;45726;-59
2023/06/04 08:46:55;;;;;;;;;4.00;3.00;;;;;21.37;34.39;101254.59;4963188;28;45258;-59
2023/06/04 08:49:22;;;;;;;;;4.00;4.00;;;;;21.45;34.16;101264.91;4963270;28;45322;-59
2023/06/04 08:51:47;;;;;;;;;4.75;4.25;;;;;21.50;34.30;101264.69;4963486;28;45368;-59
2023/06/04 08:54:14;;;;;;;;;4.00;4.00;;;;;21.58;33.88;101263.38;4962889;28;45573;-59
2023/06/04 08:56:40;;;;;;;;;5.25;5.25;;;;;21.64;34.15;101264.84;4962820;28;46176;-59
2023/06/04 08:59:07;;;;;;;;;4.00;4.00;;;;;21.69;33.88;101257.44;4962956;28;45224;-60
2023/06/04 09:01:34;;;;;;;;;6.50;5.25;;;;;21.78;33.79;101269.44;4961665;28;45338;-60
2023/06/04 09:04:03;;;;;;;;;4.00;3.00;;;;;21.83;34.27;101262.03;4975483;28;45282;-60
2023/06/04 09:06:29;;;;;;;;;3.25;3.25;;;;;21.91;34.34;101256.28;4969706;28;45636;-60
2023/06/04 09:09:00;;;;;;;;;4.75;4.75;;;;;21.98;33.84;101262.19;4962780;28;45496;-60
2023/06/04 09:11:35;;;;;;;;;6.50;4.75;;;;;22.05;33.80;101258.25;4961444;28;45272;-60
2023/06/04 09:14:07;;;;;;;;;3.25;3.00;;;;;22.12;33.83;101256.06;4961370;28;45695;-60
2023/06/04 09:16:37;;;;;;;;;6.50;5.00;;;;;22.18;33.77;101259.28;4988579;28;46222;-60
2023/06/04 09:19:04;;;;;;;;;6.50;5.50;;;;;22.23;33.71;101253.66;4962960;28;45384;-60
2023/06/04 09:21:29;;;;;;;;;4.25;4.25;;;;;22.33;33.65;101265.59;4962817;28;45212;-60
2023/06/04 09:23:55;;;;;;;;;4.75;4.75;;;;;22.38;33.22;101250.16;4962949;28;45250;-60
2023/06/04 09:26:21;;;;;;;;;5.00;4.75;;;;;22.47;33.26;101254.16;4962268;28;45290;-60
2023/06/04 09:28:47;;;;;;;;;3.00;3.00;;;;;22.54;33.48;101255.53;4962761;28;45312;-60
2023/06/04 09:31:16;;;;;;;;;4.50;4.00;;;;;22.61;33.33;101253.34;4962617;28;45320;-60
2023/06/04 09:33:50;;;;;;;;;3.50;3.50;;;;;22.66;33.35;101259.31;4961384;28;45429;-60
2023/06/04 09:36:16;;;;;;;;;3.00;3.00;;;;;22.75;33.31;101257.06;4962403;28;46763;-60
2023/06/04 09:38:43;;;;;;;;;4.50;3.25;;;;;22.83;33.27;101270.88;4962452;28;45358;-60
2023/06/04 09:41:16;;;;;;;;;4.75;4.75;;;;;22.91;32.86;101268.63;4962170;28;45283;-60
2023/06/04 09:43:43;;;;;;;;;4.00;2.25;;;;;22.98;33.06;101272.69;4962611;28;45356;-60
2023/06/04 09:46:13;;;;;;;;;4.50;4.25;;;;;23.03;32.72;101265.25;4960956;28;47701;-60
2023/06/04 09:48:40;;;;;;;;;3.00;3.00;;;;;23.13;32.76;101270.94;4962357;28;45452;-60
2023/06/04 09:51:10;;;;;;;;;4.25;3.75;;;;;23.20;32.84;101274.97;4962335;28;45344;-60
2023/06/04 09:53:36;;;;;;;;;5.00;4.00;;;;;23.28;32.65;101279.91;4962435;28;45275;-59
2023/06/04 09:56:13;;;;;;;;;4.00;3.50;;;;;23.38;32.80;101280.22;4961581;28;45516;-60
2023/06/04 09:58:40;;;;;;;;;3.00;2.75;;;;;23.46;32.91;101274.38;4962296;28;45223;-60
2023/06/04 10:01:06;;;;;;;;;5.50;5.00;;;;;23.57;32.43;101279.09;4968666;28;45318;-60
2023/06/04 10:03:33;;;;;;;;;3.00;3.00;;;;;23.64;32.46;101273.28;4981301;28;45405;-60
2023/06/04 10:06:00;;;;;;;;;3.00;3.00;;;;;23.72;32.31;101270.13;4974857;28;45453;-60
2023/06/04 10:08:30;;;;;;;;;4.00;4.00;;;;;23.83;32.08;101261.41;4961797;28;45192;-60
2023/06/04 10:11:00;;;;;;;;;4.25;3.25;;;;;23.92;32.12;101276.13;4961859;28;45903;-60
2023/06/04 10:13:28;;;;;;;;;5.00;4.25;;;;;24.04;32.11;101266.41;4960659;28;45528;-60
2023/06/04 10:15:56;;;;;;;;;4.00;2.50;;;;;24.16;31.97;101268.34;4977870;28;46281;-60
2023/06/04 10:18:22;;;;;;;;;5.00;4.00;;;;;24.26;31.88;101272.16;4969126;28;45360;-59
2023/06/04 10:20:48;;;;;;;;;4.25;3.25;;;;;24.37;31.91;101265.25;4977326;28;45297;-60
2023/06/04 10:23:14;;;;;;;;;4.25;4.25;;;;;24.53;31.77;101273.16;4961809;28;45267;-59
2023/06/04 10:25:40;;;;;;;;;3.75;3.50;;;;;24.60;31.74;101259.25;4961701;28;45270;-59
2023/06/04 10:28:05;;;;;;;;;4.25;4.00;;;;;24.81;31.63;101272.25;4976522;28;45227;-59
2023/06/04 10:30:31;;;;;;;;;3.25;2.75;;;;;24.95;31.87;101268.66;4960275;28;45332;-59
2023/06/04 10:32:57;;;;;;;;;6.75;4.50;;;;;25.21;31.77;101268.75;4961551;28;45299;-59
2023/06/04 10:35:32;;;;;;;;;4.00;4.00;;;;;25.49;32.17;101267.72;4961766;28;46441;-59
2023/06/04 10:38:06;;;;;;;;;8.00;5.50;;;;;25.88;31.99;101275.81;4961482;28;45216;-59
2023/06/04 10:40:33;;;;;;;;;5.50;5.50;;;;;26.34;32.12;101272.56;4961700;28;45304;-59
2023/06/04 10:43:05;;;;;;;;;7.00;7.00;;;;;26.84;31.87;101275.22;4961216;28;45240;-59
2023/06/04 10:45:30;;;;;;;;;5.00;4.50;;;;;27.37;31.98;101274.81;4961185;28;45413;-59
2023/06/04 10:48:07;;;;;;;;;4.00;4.00;;;;;27.98;32.40;101270.13;4961292;28;45514;-59
2023/06/04 10:50:33;;;;;;;;;6.00;4.00;;;;;28.57;32.07;101273.56;4961807;28;45334;-59
2023/06/04 10:53:02;;;;;;;;;5.50;4.25;;;;;29.18;31.92;101271.13;4961346;28;45543;-59
2023/06/04 10:55:28;;;;;;;;;3.25;3.00;;;;;29.76;31.69;101267.13;4961080;28;45313;-59
2023/06/04 10:57:55;;;;;;;;;5.25;5.25;;;;;30.41;31.58;101274.09;4961231;28;45489;-60
2023/06/04 11:00:22;;;;;;;;;3.00;3.00;;;;;31.00;31.57;101275.03;4961367;28;45349;-59
2023/06/04 11:02:55;;;;;;;;;5.75;5.75;;;;;31.61;31.49;101275.72;4964614;28;45484;-59
2023/06/04 11:05:21;;;;;;;;;2.50;2.50;;;;;32.18;31.47;101269.38;4978556;28;46216;-59
2023/06/04 11:07:49;;;;;;;;;4.75;4.25;;;;;32.75;31.08;101273.81;4959978;28;45260;-59
2023/06/04 11:10:16;;;;;;;;;2.25;2.25;;;;;33.30;30.74;101279.06;4961208;28;45541;-59
2023/06/04 11:12:51;;;;;;;;;4.75;4.75;;;;;33.84;30.25;101278.09;4960837;28;45263;-59
2023/06/04 11:15:17;;;;;;;;;5.25;4.25;;;;;34.37;30.10;101278.03;4966908;28;45354;-59
2023/06/04 11:17:54;;;;;;;;;3.50;3.50;;;;;34.86;29.90;101280.88;4979187;28;45397;-59
2023/06/04 11:20:21;;;;;;;;;1.75;1.75;;;;;35.34;29.57;101283.75;4961222;28;45267;-59
2023/06/04 11:22:58;;;;;;;;;4.25;3.50;;;;;35.83;29.05;101282.00;4961013;28;45479;-59